sensor_id;sensor_type;location;lat;lon;timestamp;P1;durP1;ratioP1;P2;durP2;ratioP2
14013;SDS011;49110;52.584;13.408;2024-02-15T00:00:28;151.80;;;144.03;;
14013;SDS011;49110;52.584;13.408;2024-02-15T00:01:28;144.43;;;137.03;;
14013;SDS011;49110;52.584;13.408;2024-02-15T00:02:29;145.43;;;138.03;;
14013;SDS011;49110;52.584;13.408;2024-02-15T00:03:30;142.73;;;135.33;;
14013;SDS011;49110;52.584;13.408;2024-02-15T00:04:31;149.47;;;141.93;;
14013;SDS011;49110;52.584;13.408;2024-02-15T00:05:33;159.40;;;151.30;;
14013;SDS011;49110;52.584;13.408;2024-02-15T00:06:36;138.70;;;131.53;;
14013;SDS011;49110;52.584;13.408;2024-02-15T00:07:38;149.13;;;141.57;;
14013;SDS011;49110;52.584;13.408;2024-02-15T00:08:38;148.03;;;140.43;;
14013;SDS011;49110;52.584;13.408;2024-02-15T00:09:39;144.50;;;137.07;;
14013;SDS011;49110;52.584;13.408;2024-02-15T00:10:39;142.27;;;135.00;;
14013;SDS011;49110;52.584;13.408;2024-02-15T00:11:40;146.73;;;139.13;;
14013;SDS011;49110;52.584;13.408;2024-02-15T00:12:40;150.13;;;142.40;;
14013;SDS011;49110;52.584;13.408;2024-02-15T00:13:41;141.33;;;134.17;;
14013;SDS011;49110;52.584;13.408;2024-02-15T00:14:41;151.53;;;143.77;;
14013;SDS011;49110;52.584;13.408;2024-02-15T00:15:42;145.13;;;137.77;;
14013;SDS011;49110;52.584;13.408;2024-02-15T00:16:43;139.23;;;131.93;;
14013;SDS011;49110;52.584;13.408;2024-02-15T00:17:43;149.93;;;142.13;;
14013;SDS011;49110;52.584;13.408;2024-02-15T00:18:44;145.07;;;137.50;;
14013;SDS011;49110;52.584;13.408;2024-02-15T00:19:44;149.60;;;141.87;;
14013;SDS011;49110;52.584;13.408;2024-02-15T00:20:46;142.97;;;135.67;;
14013;SDS011;49110;52.584;13.408;2024-02-15T00:21:47;138.03;;;130.80;;
14013;SDS011;49110;52.584;13.408;2024-02-15T00:22:48;148.10;;;140.50;;
14013;SDS011;49110;52.584;13.408;2024-02-15T00:23:49;149.13;;;141.63;;
14013;SDS011;49110;52.584;13.408;2024-02-15T00:24:50;147.23;;;139.70;;
14013;SDS011;49110;52.584;13.408;2024-02-15T00:25:50;144.70;;;137.17;;
14013;SDS011;49110;52.584;13.408;2024-02-15T00:26:51;149.07;;;141.40;;
14013;SDS011;49110;52.584;13.408;2024-02-15T00:27:52;144.53;;;137.10;;
14013;SDS011;49110;52.584;13.408;2024-02-15T00:28:52;141.00;;;133.80;;
14013;SDS011;49110;52.584;13.408;2024-02-15T00:29:52;144.53;;;137.03;;
14013;SDS011;49110;52.584;13.408;2024-02-15T00:30:53;140.30;;;133.07;;
14013;SDS011;49110;52.584;13.408;2024-02-15T00:31:53;134.43;;;127.50;;
14013;SDS011;49110;52.584;13.408;2024-02-15T00:32:55;138.13;;;131.20;;
14013;SDS011;49110;52.584;13.408;2024-02-15T00:33:55;142.07;;;134.70;;
14013;SDS011;49110;52.584;13.408;2024-02-15T00:34:56;139.37;;;132.20;;
14013;SDS011;49110;52.584;13.408;2024-02-15T00:35:56;139.50;;;132.40;;
14013;SDS011;49110;52.584;13.408;2024-02-15T00:36:58;145.67;;;138.30;;
14013;SDS011;49110;52.584;13.408;2024-02-15T00:37:58;143.97;;;136.60;;
14013;SDS011;49110;52.584;13.408;2024-02-15T00:38:59;143.17;;;135.83;;
14013;SDS011;49110;52.584;13.408;2024-02-15T00:39:59;139.97;;;132.80;;
14013;SDS011;49110;52.584;13.408;2024-02-15T00:41:00;143.70;;;136.40;;
14013;SDS011;49110;52.584;13.408;2024-02-15T00:42:00;148.73;;;141.17;;
14013;SDS011;49110;52.584;13.408;2024-02-15T00:43:01;143.33;;;135.90;;
14013;SDS011;49110;52.584;13.408;2024-02-15T00:44:01;136.93;;;129.80;;
14013;SDS011;49110;52.584;13.408;2024-02-15T00:45:05;141.13;;;134.03;;
14013;SDS011;49110;52.584;13.408;2024-02-15T00:46:05;140.23;;;133.00;;
14013;SDS011;49110;52.584;13.408;2024-02-15T00:47:06;140.00;;;132.80;;
14013;SDS011;49110;52.584;13.408;2024-02-15T00:48:07;141.63;;;134.17;;
14013;SDS011;49110;52.584;13.408;2024-02-15T00:49:08;143.77;;;136.37;;
14013;SDS011;49110;52.584;13.408;2024-02-15T00:50:09;135.43;;;128.47;;
14013;SDS011;49110;52.584;13.408;2024-02-15T00:51:10;142.60;;;135.27;;
14013;SDS011;49110;52.584;13.408;2024-02-15T00:52:10;136.47;;;129.33;;
14013;SDS011;49110;52.584;13.408;2024-02-15T00:53:11;137.40;;;130.33;;
14013;SDS011;49110;52.584;13.408;2024-02-15T00:54:11;141.23;;;133.67;;
14013;SDS011;49110;52.584;13.408;2024-02-15T00:55:12;135.63;;;128.73;;
14013;SDS011;49110;52.584;13.408;2024-02-15T00:56:12;136.73;;;129.70;;
14013;SDS011;49110;52.584;13.408;2024-02-15T00:57:13;139.50;;;132.23;;
14013;SDS011;49110;52.584;13.408;2024-02-15T00:58:13;138.63;;;131.50;;
14013;SDS011;49110;52.584;13.408;2024-02-15T00:59:14;140.47;;;133.27;;
14013;SDS011;49110;52.584;13.408;2024-02-15T01:00:14;140.17;;;133.07;;
14013;SDS011;49110;52.584;13.408;2024-02-15T01:01:15;132.57;;;125.70;;
14013;SDS011;49110;52.584;13.408;2024-02-15T01:02:16;138.33;;;131.33;;
14013;SDS011;49110;52.584;13.408;2024-02-15T01:03:17;138.57;;;131.43;;
14013;SDS011;49110;52.584;13.408;2024-02-15T01:04:19;136.90;;;129.93;;
14013;SDS011;49110;52.584;13.408;2024-02-15T01:05:19;138.53;;;131.40;;
14013;SDS011;49110;52.584;13.408;2024-02-15T01:06:21;138.33;;;131.33;;
14013;SDS011;49110;52.584;13.408;2024-02-15T01:07:22;144.13;;;136.73;;
14013;SDS011;49110;52.584;13.408;2024-02-15T01:08:26;135.60;;;128.63;;
14013;SDS011;49110;52.584;13.408;2024-02-15T01:09:26;135.93;;;128.97;;
14013;SDS011;49110;52.584;13.408;2024-02-15T01:10:27;145.33;;;137.93;;
14013;SDS011;49110;52.584;13.408;2024-02-15T01:11:27;136.83;;;129.80;;
14013;SDS011;49110;52.584;13.408;2024-02-15T01:12:29;144.20;;;136.93;;
14013;SDS011;49110;52.584;13.408;2024-02-15T01:13:29;139.03;;;131.77;;
14013;SDS011;49110;52.584;13.408;2024-02-15T01:14:30;143.67;;;136.40;;
14013;SDS011;49110;52.584;13.408;2024-02-15T01:15:31;141.87;;;134.60;;
14013;SDS011;49110;52.584;13.408;2024-02-15T01:16:32;140.30;;;133.10;;
14013;SDS011;49110;52.584;13.408;2024-02-15T01:17:32;140.40;;;133.27;;
14013;SDS011;49110;52.584;13.408;2024-02-15T01:18:33;147.13;;;139.60;;
14013;SDS011;49110;52.584;13.408;2024-02-15T01:19:34;137.87;;;130.83;;
14013;SDS011;49110;52.584;13.408;2024-02-15T01:20:35;145.13;;;137.70;;
14013;SDS011;49110;52.584;13.408;2024-02-15T01:21:36;143.00;;;135.60;;
14013;SDS011;49110;52.584;13.408;2024-02-15T01:22:37;142.13;;;134.73;;
14013;SDS011;49110;52.584;13.408;2024-02-15T01:23:38;148.77;;;141.20;;
14013;SDS011;49110;52.584;13.408;2024-02-15T01:24:39;153.03;;;145.23;;
14013;SDS011;49110;52.584;13.408;2024-02-15T01:25:39;144.53;;;137.20;;
14013;SDS011;49110;52.584;13.408;2024-02-15T01:26:40;144.93;;;137.53;;
14013;SDS011;49110;52.584;13.408;2024-02-15T01:27:41;144.47;;;136.93;;
14013;SDS011;49110;52.584;13.408;2024-02-15T01:28:42;151.30;;;143.70;;
14013;SDS011;49110;52.584;13.408;2024-02-15T01:29:43;145.30;;;137.77;;
14013;SDS011;49110;52.584;13.408;2024-02-15T01:30:44;154.13;;;146.13;;
14013;SDS011;49110;52.584;13.408;2024-02-15T01:31:45;148.63;;;140.87;;
14013;SDS011;49110;52.584;13.408;2024-02-15T01:32:46;144.60;;;137.10;;
14013;SDS011;49110;52.584;13.408;2024-02-15T01:33:47;155.90;;;147.90;;
14013;SDS011;49110;52.584;13.408;2024-02-15T01:34:48;146.33;;;138.90;;
14013;SDS011;49110;52.584;13.408;2024-02-15T01:35:53;154.10;;;146.23;;
14013;SDS011;49110;52.584;13.408;2024-02-15T01:36:54;150.77;;;143.00;;
14013;SDS011;49110;52.584;13.408;2024-02-15T01:37:55;160.67;;;152.37;;
14013;SDS011;49110;52.584;13.408;2024-02-15T01:38:55;154.80;;;146.80;;
14013;SDS011;49110;52.584;13.408;2024-02-15T01:39:56;161.27;;;152.93;;
14013;SDS011;49110;52.584;13.408;2024-02-15T01:40:56;157.20;;;149.17;;
14013;SDS011;49110;52.584;13.408;2024-02-15T01:41:57;151.83;;;144.10;;
14013;SDS011;49110;52.584;13.408;2024-02-15T01:42:58;153.73;;;145.90;;
14013;SDS011;49110;52.584;13.408;2024-02-15T01:44:00;147.17;;;139.73;;
14013;SDS011;49110;52.584;13.408;2024-02-15T01:45:01;156.33;;;148.33;;
14013;SDS011;49110;52.584;13.408;2024-02-15T01:46:06;150.40;;;142.73;;
14013;SDS011;49110;52.584;13.408;2024-02-15T01:47:08;147.47;;;139.93;;
14013;SDS011;49110;52.584;13.408;2024-02-15T01:48:10;148.30;;;140.50;;
14013;SDS011;49110;52.584;13.408;2024-02-15T01:49:10;152.70;;;144.63;;
14013;SDS011;49110;52.584;13.408;2024-02-15T01:50:12;161.43;;;153.17;;
14013;SDS011;49110;52.584;13.408;2024-02-15T01:51:13;152.27;;;144.33;;
14013;SDS011;49110;52.584;13.408;2024-02-15T01:52:16;155.23;;;147.30;;
14013;SDS011;49110;52.584;13.408;2024-02-15T01:53:17;154.07;;;146.17;;
14013;SDS011;49110;52.584;13.408;2024-02-15T01:54:18;150.83;;;143.00;;
14013;SDS011;49110;52.584;13.408;2024-02-15T01:55:20;157.97;;;149.90;;
14013;SDS011;49110;52.584;13.408;2024-02-15T01:56:21;155.27;;;147.20;;
14013;SDS011;49110;52.584;13.408;2024-02-15T01:57:23;164.40;;;156.03;;
14013;SDS011;49110;52.584;13.408;2024-02-15T01:58:26;152.83;;;144.93;;
14013;SDS011;49110;52.584;13.408;2024-02-15T01:59:27;149.97;;;142.27;;
14013;SDS011;49110;52.584;13.408;2024-02-15T02:00:28;162.37;;;154.10;;
14013;SDS011;49110;52.584;13.408;2024-02-15T02:01:30;162.33;;;154.03;;
14013;SDS011;49110;52.584;13.408;2024-02-15T02:02:32;151.73;;;143.83;;
14013;SDS011;49110;52.584;13.408;2024-02-15T02:03:35;151.67;;;143.80;;
14013;SDS011;49110;52.584;13.408;2024-02-15T02:04:36;163.77;;;155.27;;
14013;SDS011;49110;52.584;13.408;2024-02-15T02:05:37;160.00;;;151.63;;
14013;SDS011;49110;52.584;13.408;2024-02-15T02:06:38;168.97;;;160.40;;
14013;SDS011;49110;52.584;13.408;2024-02-15T02:07:39;159.97;;;151.80;;
14013;SDS011;49110;52.584;13.408;2024-02-15T02:08:40;156.47;;;148.40;;
14013;SDS011;49110;52.584;13.408;2024-02-15T02:09:40;162.97;;;154.60;;
14013;SDS011;49110;52.584;13.408;2024-02-15T02:10:41;161.50;;;153.17;;
14013;SDS011;49110;52.584;13.408;2024-02-15T02:11:43;160.27;;;151.93;;
14013;SDS011;49110;52.584;13.408;2024-02-15T02:12:45;168.77;;;160.03;;
14013;SDS011;49110;52.584;13.408;2024-02-15T02:13:45;162.30;;;153.80;;
14013;SDS011;49110;52.584;13.408;2024-02-15T02:14:46;158.23;;;150.03;;
14013;SDS011;49110;52.584;13.408;2024-02-15T02:15:46;159.27;;;151.03;;
14013;SDS011;49110;52.584;13.408;2024-02-15T02:16:46;164.53;;;156.17;;
14013;SDS011;49110;52.584;13.408;2024-02-15T02:17:50;157.20;;;148.83;;
14013;SDS011;49110;52.584;13.408;2024-02-15T02:18:56;158.73;;;150.53;;
14013;SDS011;49110;52.584;13.408;2024-02-15T02:19:57;151.30;;;143.40;;
14013;SDS011;49110;52.584;13.408;2024-02-15T02:20:57;166.53;;;157.97;;
14013;SDS011;49110;52.584;13.408;2024-02-15T02:21:58;166.33;;;157.73;;
14013;SDS011;49110;52.584;13.408;2024-02-15T02:23:03;168.70;;;160.17;;
14013;SDS011;49110;52.584;13.408;2024-02-15T02:24:14;154.97;;;147.00;;
14013;SDS011;49110;52.584;13.408;2024-02-15T02:25:21;152.03;;;144.27;;
14013;SDS011;49110;52.584;13.408;2024-02-15T02:26:26;162.10;;;153.83;;
14013;SDS011;49110;52.584;13.408;2024-02-15T02:27:26;158.47;;;150.27;;
14013;SDS011;49110;52.584;13.408;2024-02-15T02:28:28;153.37;;;145.37;;
14013;SDS011;49110;52.584;13.408;2024-02-15T02:29:28;164.80;;;156.33;;
14013;SDS011;49110;52.584;13.408;2024-02-15T02:30:30;176.40;;;167.37;;
14013;SDS011;49110;52.584;13.408;2024-02-15T02:31:33;165.97;;;157.47;;
14013;SDS011;49110;52.584;13.408;2024-02-15T02:32:34;165.77;;;157.13;;
14013;SDS011;49110;52.584;13.408;2024-02-15T02:33:36;157.17;;;149.00;;
14013;SDS011;49110;52.584;13.408;2024-02-15T02:34:36;161.40;;;153.03;;
14013;SDS011;49110;52.584;13.408;2024-02-15T02:35:36;157.30;;;149.20;;
14013;SDS011;49110;52.584;13.408;2024-02-15T02:36:37;158.87;;;150.70;;
14013;SDS011;49110;52.584;13.408;2024-02-15T02:37:40;172.23;;;163.40;;
14013;SDS011;49110;52.584;13.408;2024-02-15T02:38:41;163.77;;;155.43;;
14013;SDS011;49110;52.584;13.408;2024-02-15T02:39:45;167.27;;;158.47;;
14013;SDS011;49110;52.584;13.408;2024-02-15T02:40:45;163.07;;;154.60;;
14013;SDS011;49110;52.584;13.408;2024-02-15T02:41:46;167.60;;;159.00;;
14013;SDS011;49110;52.584;13.408;2024-02-15T02:42:53;173.47;;;164.57;;
14013;SDS011;49110;52.584;13.408;2024-02-15T02:43:59;151.10;;;143.20;;
14013;SDS011;49110;52.584;13.408;2024-02-15T02:45:01;163.40;;;154.80;;
14013;SDS011;49110;52.584;13.408;2024-02-15T02:46:01;165.80;;;157.13;;
14013;SDS011;49110;52.584;13.408;2024-02-15T02:47:02;168.97;;;160.33;;
14013;SDS011;49110;52.584;13.408;2024-02-15T02:48:02;160.40;;;152.07;;
14013;SDS011;49110;52.584;13.408;2024-02-15T02:49:03;168.80;;;160.13;;
14013;SDS011;49110;52.584;13.408;2024-02-15T02:50:04;165.53;;;156.67;;
14013;SDS011;49110;52.584;13.408;2024-02-15T02:51:06;173.00;;;163.93;;
14013;SDS011;49110;52.584;13.408;2024-02-15T02:52:07;163.90;;;155.30;;
14013;SDS011;49110;52.584;13.408;2024-02-15T02:53:08;166.30;;;157.80;;
14013;SDS011;49110;52.584;13.408;2024-02-15T02:54:10;169.37;;;160.47;;
14013;SDS011;49110;52.584;13.408;2024-02-15T02:55:11;163.23;;;154.83;;
14013;SDS011;49110;52.584;13.408;2024-02-15T02:56:11;171.47;;;162.77;;
14013;SDS011;49110;52.584;13.408;2024-02-15T02:57:12;163.90;;;155.47;;
14013;SDS011;49110;52.584;13.408;2024-02-15T02:58:13;171.97;;;163.17;;
14013;SDS011;49110;52.584;13.408;2024-02-15T02:59:13;166.00;;;157.57;;
14013;SDS011;49110;52.584;13.408;2024-02-15T03:00:16;169.83;;;161.13;;
14013;SDS011;49110;52.584;13.408;2024-02-15T03:01:17;171.87;;;163.07;;
14013;SDS011;49110;52.584;13.408;2024-02-15T03:02:18;167.97;;;159.17;;
14013;SDS011;49110;52.584;13.408;2024-02-15T03:03:18;165.50;;;157.07;;
14013;SDS011;49110;52.584;13.408;2024-02-15T03:04:19;160.70;;;152.23;;
14013;SDS011;49110;52.584;13.408;2024-02-15T03:05:19;163.90;;;155.47;;
14013;SDS011;49110;52.584;13.408;2024-02-15T03:06:21;160.67;;;152.30;;
14013;SDS011;49110;52.584;13.408;2024-02-15T03:07:21;161.27;;;152.93;;
14013;SDS011;49110;52.584;13.408;2024-02-15T03:08:23;165.93;;;157.27;;
14013;SDS011;49110;52.584;13.408;2024-02-15T03:09:24;162.17;;;153.63;;
14013;SDS011;49110;52.584;13.408;2024-02-15T03:10:29;154.13;;;146.07;;
14013;SDS011;49110;52.584;13.408;2024-02-15T03:11:29;151.97;;;143.97;;
14013;SDS011;49110;52.584;13.408;2024-02-15T03:12:30;158.70;;;150.43;;
14013;SDS011;49110;52.584;13.408;2024-02-15T03:13:31;166.90;;;158.13;;
14013;SDS011;49110;52.584;13.408;2024-02-15T03:14:31;159.53;;;151.23;;
14013;SDS011;49110;52.584;13.408;2024-02-15T03:15:35;167.73;;;159.10;;
14013;SDS011;49110;52.584;13.408;2024-02-15T03:16:36;163.00;;;154.67;;
14013;SDS011;49110;52.584;13.408;2024-02-15T03:17:42;164.97;;;156.47;;
14013;SDS011;49110;52.584;13.408;2024-02-15T03:18:44;153.60;;;145.57;;
14013;SDS011;49110;52.584;13.408;2024-02-15T03:19:44;161.90;;;153.43;;
14013;SDS011;49110;52.584;13.408;2024-02-15T03:20:45;157.57;;;149.33;;
14013;SDS011;49110;52.584;13.408;2024-02-15T03:21:45;159.17;;;150.87;;
14013;SDS011;49110;52.584;13.408;2024-02-15T03:23:56;157.53;;;149.37;;
14013;SDS011;49110;52.584;13.408;2024-02-15T03:24:57;155.47;;;147.43;;
14013;SDS011;49110;52.584;13.408;2024-02-15T03:25:57;164.50;;;155.87;;
14013;SDS011;49110;52.584;13.408;2024-02-15T03:26:58;154.43;;;146.30;;
14013;SDS011;49110;52.584;13.408;2024-02-15T03:27:59;158.07;;;149.77;;
14013;SDS011;49110;52.584;13.408;2024-02-15T03:29:03;146.33;;;138.57;;
14013;SDS011;49110;52.584;13.408;2024-02-15T03:30:04;162.87;;;154.40;;
14013;SDS011;49110;52.584;13.408;2024-02-15T03:31:05;160.17;;;151.70;;
14013;SDS011;49110;52.584;13.408;2024-02-15T03:32:05;155.90;;;147.70;;
14013;SDS011;49110;52.584;13.408;2024-02-15T03:33:06;163.00;;;154.43;;
14013;SDS011;49110;52.584;13.408;2024-02-15T03:34:06;165.77;;;157.13;;
14013;SDS011;49110;52.584;13.408;2024-02-15T03:35:07;162.87;;;154.40;;
14013;SDS011;49110;52.584;13.408;2024-02-15T03:36:08;158.77;;;150.50;;
14013;SDS011;49110;52.584;13.408;2024-02-15T03:37:10;158.77;;;150.47;;
14013;SDS011;49110;52.584;13.408;2024-02-15T03:38:10;160.80;;;152.40;;
14013;SDS011;49110;52.584;13.408;2024-02-15T03:39:12;165.57;;;157.00;;
14013;SDS011;49110;52.584;13.408;2024-02-15T03:40:13;163.43;;;155.07;;
14013;SDS011;49110;52.584;13.408;2024-02-15T03:41:14;167.80;;;158.93;;
14013;SDS011;49110;52.584;13.408;2024-02-15T03:42:14;161.30;;;152.93;;
14013;SDS011;49110;52.584;13.408;2024-02-15T03:43:15;162.47;;;153.93;;
14013;SDS011;49110;52.584;13.408;2024-02-15T03:44:16;163.73;;;155.17;;
14013;SDS011;49110;52.584;13.408;2024-02-15T03:45:18;165.57;;;157.03;;
14013;SDS011;49110;52.584;13.408;2024-02-15T03:46:18;166.23;;;157.63;;
14013;SDS011;49110;52.584;13.408;2024-02-15T03:47:19;165.27;;;156.60;;
14013;SDS011;49110;52.584;13.408;2024-02-15T03:48:19;162.67;;;154.17;;
14013;SDS011;49110;52.584;13.408;2024-02-15T03:49:20;156.73;;;148.47;;
14013;SDS011;49110;52.584;13.408;2024-02-15T03:50:21;171.60;;;162.67;;
14013;SDS011;49110;52.584;13.408;2024-02-15T03:51:21;165.17;;;156.43;;
14013;SDS011;49110;52.584;13.408;2024-02-15T03:52:24;173.43;;;164.50;;
14013;SDS011;49110;52.584;13.408;2024-02-15T03:53:24;163.63;;;155.03;;
14013;SDS011;49110;52.584;13.408;2024-02-15T03:54:26;171.07;;;162.07;;
14013;SDS011;49110;52.584;13.408;2024-02-15T03:55:26;166.87;;;158.10;;
14013;SDS011;49110;52.584;13.408;2024-02-15T03:56:27;163.10;;;154.57;;
14013;SDS011;49110;52.584;13.408;2024-02-15T03:57:28;163.00;;;154.57;;
14013;SDS011;49110;52.584;13.408;2024-02-15T03:58:29;172.57;;;163.53;;
14013;SDS011;49110;52.584;13.408;2024-02-15T03:59:32;169.13;;;160.20;;
14013;SDS011;49110;52.584;13.408;2024-02-15T04:00:34;166.73;;;158.13;;
14013;SDS011;49110;52.584;13.408;2024-02-15T04:01:35;172.37;;;163.57;;
14013;SDS011;49110;52.584;13.408;2024-02-15T04:02:36;167.83;;;159.13;;
14013;SDS011;49110;52.584;13.408;2024-02-15T04:03:37;170.90;;;162.17;;
14013;SDS011;49110;52.584;13.408;2024-02-15T04:04:38;162.87;;;154.37;;
14013;SDS011;49110;52.584;13.408;2024-02-15T04:05:42;167.93;;;159.10;;
14013;SDS011;49110;52.584;13.408;2024-02-15T04:06:42;165.60;;;156.80;;
14013;SDS011;49110;52.584;13.408;2024-02-15T04:07:43;163.13;;;154.40;;
14013;SDS011;49110;52.584;13.408;2024-02-15T04:08:44;182.43;;;173.03;;
14013;SDS011;49110;52.584;13.408;2024-02-15T04:09:47;170.10;;;161.23;;
14013;SDS011;49110;52.584;13.408;2024-02-15T04:10:48;159.67;;;151.43;;
14013;SDS011;49110;52.584;13.408;2024-02-15T04:11:49;171.20;;;162.30;;
14013;SDS011;49110;52.584;13.408;2024-02-15T04:12:57;165.93;;;157.33;;
14013;SDS011;49110;52.584;13.408;2024-02-15T04:14:00;166.63;;;157.97;;
14013;SDS011;49110;52.584;13.408;2024-02-15T04:15:00;170.30;;;161.43;;
14013;SDS011;49110;52.584;13.408;2024-02-15T04:16:05;161.00;;;152.50;;
14013;SDS011;49110;52.584;13.408;2024-02-15T04:17:06;159.00;;;150.63;;
14013;SDS011;49110;52.584;13.408;2024-02-15T04:18:07;176.57;;;167.37;;
14013;SDS011;49110;52.584;13.408;2024-02-15T04:19:08;162.63;;;154.03;;
14013;SDS011;49110;52.584;13.408;2024-02-15T04:20:09;174.27;;;165.10;;
14013;SDS011;49110;52.584;13.408;2024-02-15T04:21:11;179.13;;;169.93;;
14013;SDS011;49110;52.584;13.408;2024-02-15T04:22:12;177.70;;;168.40;;
14013;SDS011;49110;52.584;13.408;2024-02-15T04:23:16;169.57;;;160.63;;
14013;SDS011;49110;52.584;13.408;2024-02-15T04:24:16;166.90;;;158.13;;
14013;SDS011;49110;52.584;13.408;2024-02-15T04:25:17;167.03;;;158.43;;
14013;SDS011;49110;52.584;13.408;2024-02-15T04:26:20;158.20;;;149.97;;
14013;SDS011;49110;52.584;13.408;2024-02-15T04:27:20;167.03;;;158.13;;
14013;SDS011;49110;52.584;13.408;2024-02-15T04:28:21;178.50;;;169.30;;
14013;SDS011;49110;52.584;13.408;2024-02-15T04:29:22;173.37;;;164.23;;
14013;SDS011;49110;52.584;13.408;2024-02-15T04:30:22;165.50;;;156.70;;
14013;SDS011;49110;52.584;13.408;2024-02-15T04:31:24;172.73;;;163.90;;
14013;SDS011;49110;52.584;13.408;2024-02-15T04:32:26;179.33;;;170.07;;
14013;SDS011;49110;52.584;13.408;2024-02-15T04:33:28;185.17;;;175.57;;
14013;SDS011;49110;52.584;13.408;2024-02-15T04:34:29;171.90;;;162.83;;
14013;SDS011;49110;52.584;13.408;2024-02-15T04:35:33;171.53;;;162.40;;
14013;SDS011;49110;52.584;13.408;2024-02-15T04:36:35;165.90;;;157.00;;
14013;SDS011;49110;52.584;13.408;2024-02-15T04:37:36;165.77;;;157.10;;
14013;SDS011;49110;52.584;13.408;2024-02-15T04:38:38;179.53;;;170.17;;
14013;SDS011;49110;52.584;13.408;2024-02-15T04:39:39;172.63;;;163.60;;
14013;SDS011;49110;52.584;13.408;2024-02-15T04:40:39;163.27;;;154.67;;
14013;SDS011;49110;52.584;13.408;2024-02-15T04:41:40;168.57;;;159.67;;
14013;SDS011;49110;52.584;13.408;2024-02-15T04:42:41;183.60;;;174.07;;
14013;SDS011;49110;52.584;13.408;2024-02-15T04:43:44;168.70;;;159.83;;
14013;SDS011;49110;52.584;13.408;2024-02-15T04:44:47;164.47;;;155.77;;
14013;SDS011;49110;52.584;13.408;2024-02-15T04:45:48;172.87;;;163.93;;
14013;SDS011;49110;52.584;13.408;2024-02-15T04:46:48;167.83;;;159.13;;
14013;SDS011;49110;52.584;13.408;2024-02-15T04:47:49;152.40;;;144.10;;
14013;SDS011;49110;52.584;13.408;2024-02-15T04:48:52;173.77;;;164.70;;
14013;SDS011;49110;52.584;13.408;2024-02-15T04:49:53;168.60;;;159.80;;
14013;SDS011;49110;52.584;13.408;2024-02-15T04:50:54;171.13;;;161.97;;
14013;SDS011;49110;52.584;13.408;2024-02-15T04:51:55;182.47;;;172.97;;
14013;SDS011;49110;52.584;13.408;2024-02-15T04:52:57;172.30;;;163.17;;
14013;SDS011;49110;52.584;13.408;2024-02-15T04:53:57;176.53;;;167.30;;
14013;SDS011;49110;52.584;13.408;2024-02-15T04:54:58;177.87;;;168.63;;
14013;SDS011;49110;52.584;13.408;2024-02-15T04:55:58;165.07;;;156.33;;
14013;SDS011;49110;52.584;13.408;2024-02-15T04:57:01;169.80;;;160.90;;
14013;SDS011;49110;52.584;13.408;2024-02-15T04:58:01;181.33;;;171.93;;
14013;SDS011;49110;52.584;13.408;2024-02-15T04:59:02;163.50;;;154.73;;
14013;SDS011;49110;52.584;13.408;2024-02-15T05:00:03;182.60;;;173.13;;
14013;SDS011;49110;52.584;13.408;2024-02-15T05:01:12;166.23;;;157.53;;
14013;SDS011;49110;52.584;13.408;2024-02-15T05:02:13;168.77;;;159.90;;
14013;SDS011;49110;52.584;13.408;2024-02-15T05:03:13;168.93;;;159.90;;
14013;SDS011;49110;52.584;13.408;2024-02-15T05:04:14;173.20;;;164.10;;
14013;SDS011;49110;52.584;13.408;2024-02-15T05:05:15;156.87;;;148.53;;
14013;SDS011;49110;52.584;13.408;2024-02-15T05:06:15;167.97;;;159.20;;
14013;SDS011;49110;52.584;13.408;2024-02-15T05:07:16;174.43;;;165.37;;
14013;SDS011;49110;52.584;13.408;2024-02-15T05:08:18;172.53;;;163.57;;
14013;SDS011;49110;52.584;13.408;2024-02-15T05:09:19;173.07;;;163.93;;
14013;SDS011;49110;52.584;13.408;2024-02-15T05:10:19;170.90;;;161.90;;
14013;SDS011;49110;52.584;13.408;2024-02-15T05:11:20;169.20;;;160.40;;
14013;SDS011;49110;52.584;13.408;2024-02-15T05:12:22;164.80;;;156.17;;
14013;SDS011;49110;52.584;13.408;2024-02-15T05:13:24;164.27;;;155.53;;
14013;SDS011;49110;52.584;13.408;2024-02-15T05:14:25;172.90;;;163.60;;
14013;SDS011;49110;52.584;13.408;2024-02-15T05:15:26;164.23;;;155.60;;
14013;SDS011;49110;52.584;13.408;2024-02-15T05:16:27;158.40;;;150.13;;
14013;SDS011;49110;52.584;13.408;2024-02-15T05:17:28;180.43;;;171.03;;
14013;SDS011;49110;52.584;13.408;2024-02-15T05:18:31;163.17;;;154.37;;
14013;SDS011;49110;52.584;13.408;2024-02-15T05:19:31;168.23;;;159.37;;
14013;SDS011;49110;52.584;13.408;2024-02-15T05:20:32;161.70;;;153.20;;
14013;SDS011;49110;52.584;13.408;2024-02-15T05:21:34;179.90;;;170.40;;
14013;SDS011;49110;52.584;13.408;2024-02-15T05:22:35;174.03;;;164.73;;
14013;SDS011;49110;52.584;13.408;2024-02-15T05:23:36;167.20;;;158.50;;
14013;SDS011;49110;52.584;13.408;2024-02-15T05:24:39;168.20;;;159.33;;
14013;SDS011;49110;52.584;13.408;2024-02-15T05:25:40;181.70;;;172.23;;
14013;SDS011;49110;52.584;13.408;2024-02-15T05:26:44;174.93;;;165.80;;
14013;SDS011;49110;52.584;13.408;2024-02-15T05:27:54;166.60;;;157.90;;
14013;SDS011;49110;52.584;13.408;2024-02-15T05:28:55;165.00;;;156.00;;
14013;SDS011;49110;52.584;13.408;2024-02-15T05:29:56;173.23;;;164.10;;
14013;SDS011;49110;52.584;13.408;2024-02-15T05:31:09;176.47;;;167.30;;
14013;SDS011;49110;52.584;13.408;2024-02-15T05:32:10;175.60;;;166.23;;
14013;SDS011;49110;52.584;13.408;2024-02-15T05:33:13;166.13;;;157.27;;
14013;SDS011;49110;52.584;13.408;2024-02-15T05:34:14;173.50;;;164.30;;
14013;SDS011;49110;52.584;13.408;2024-02-15T05:35:14;175.43;;;166.27;;
14013;SDS011;49110;52.584;13.408;2024-02-15T05:36:15;174.23;;;165.17;;
14013;SDS011;49110;52.584;13.408;2024-02-15T05:37:20;172.47;;;163.37;;
14013;SDS011;49110;52.584;13.408;2024-02-15T05:38:21;172.33;;;163.20;;
14013;SDS011;49110;52.584;13.408;2024-02-15T05:39:21;174.10;;;165.10;;
14013;SDS011;49110;52.584;13.408;2024-02-15T05:40:23;163.47;;;154.77;;
14013;SDS011;49110;52.584;13.408;2024-02-15T05:41:23;168.97;;;159.90;;
14013;SDS011;49110;52.584;13.408;2024-02-15T05:42:24;180.80;;;171.40;;
14013;SDS011;49110;52.584;13.408;2024-02-15T05:43:25;180.07;;;170.77;;
14013;SDS011;49110;52.584;13.408;2024-02-15T05:44:25;171.30;;;162.30;;